Time;durP1;ratioP1;P1;durP2;ratioP2;P2;SDS_P1;SDS_P2;PMS_P1;PMS_P2;Temp;Humidity;BMP_temperature;BMP_pressure;BME280_temperature;BME280_humidity;BME280_pressure;Samples;Min_cycle;Max_cycle;Signal;HPM_P1;HPM_P2
2022/04/07 00:00:50;;;;;;;2.92;1.55;;;;;;;12.63;63.48;97713.38;5161686;28;20057;-73
2022/04/07 00:03:41;;;;;;;2.15;1.50;;;;;;;12.83;63.35;97724.22;5161993;28;20128;-72
2022/04/07 00:06:31;;;;;;;3.08;1.48;;;;;;;12.63;63.61;97726.66;5161656;28;20531;-73
2022/04/07 00:09:22;;;;;;;1.83;1.60;;;;;;;12.64;63.91;97717.66;5147876;28;20484;-73
2022/04/07 00:12:12;;;;;;;2.80;1.60;;;;;;;12.45;63.48;97707.66;5161669;28;20085;-74
2022/04/07 00:15:02;;;;;;;4.55;2.13;;;;;;;12.43;63.21;97689.22;5161713;28;20064;-73
2022/04/07 00:17:52;;;;;;;3.65;1.77;;;;;;;12.57;62.94;97705.31;5165652;28;20061;-73
2022/04/07 00:20:43;;;;;;;4.70;1.65;;;;;;;12.58;62.40;97696.31;5165403;28;20057;-73
2022/04/07 00:23:33;;;;;;;1.58;1.10;;;;;;;12.52;62.24;97671.34;5152565;28;20468;-73
2022/04/07 00:26:23;;;;;;;3.05;1.42;;;;;;;12.28;62.23;97655.72;5165174;28;20504;-73
2022/04/07 00:29:14;;;;;;;2.75;1.33;;;;;;;12.10;62.49;97664.09;5165536;28;20184;-73
2022/04/07 00:32:06;;;;;;;3.60;1.15;;;;;;;12.23;62.39;97669.56;5164987;28;20057;-73
2022/04/07 00:34:56;;;;;;;2.42;1.33;;;;;;;12.30;62.09;97657.19;5165324;28;20077;-73
2022/04/07 00:37:46;;;;;;;2.55;1.00;;;;;;;12.54;61.06;97658.66;5165386;28;20109;-73
2022/04/07 00:40:36;;;;;;;2.55;1.25;;;;;;;12.29;61.41;97639.59;5165354;28;20068;-73
2022/04/07 00:43:31;;;;;;;3.83;1.10;;;;;;;12.28;61.13;97658.38;5166156;28;20100;-73
2022/04/07 00:46:21;;;;;;;1.75;1.00;;;;;;;12.20;61.67;97656.66;5165274;28;20136;-73
2022/04/07 00:49:11;;;;;;;3.58;1.00;;;;;;;12.38;60.79;97637.63;5146006;28;20058;-73
2022/04/07 00:52:02;;;;;;;1.55;1.05;;;;;;;12.14;61.25;97647.59;5165039;28;20508;-73
2022/04/07 00:54:52;;;;;;;3.42;0.93;;;;;;;12.10;61.01;97641.00;5144482;28;20102;-73
2022/04/07 00:57:44;;;;;;;1.88;0.80;;;;;;;12.19;60.78;97639.91;5150279;28;20073;-73
2022/04/07 01:00:34;;;;;;;1.45;1.00;;;;;;;12.27;60.04;97624.84;5164789;28;20053;-73
2022/04/07 01:03:25;;;;;;;1.80;1.00;;;;;;;12.43;60.65;97641.38;5164931;28;20631;-73
2022/04/07 01:06:18;;;;;;;1.80;0.90;;;;;;;12.43;60.45;97625.44;5164577;28;20058;-73
2022/04/07 01:09:09;;;;;;;2.50;1.40;;;;;;;12.35;60.93;97638.00;5164695;28;20054;-74
2022/04/07 01:11:59;;;;;;;1.13;0.88;;;;;;;12.52;60.02;97618.16;5165075;28;20053;-73
2022/04/07 01:14:54;;;;;;;0.80;0.80;;;;;;;12.38;60.34;97621.69;5140621;28;20058;-73
2022/04/07 01:17:45;;;;;;;2.42;1.10;;;;;;;11.97;62.19;97620.41;5164977;28;20046;-73
2022/04/07 01:20:35;;;;;;;0.63;0.60;;;;;;;12.08;60.85;97608.47;5164499;28;20073;-73
2022/04/07 01:23:29;;;;;;;3.90;0.80;;;;;;;12.25;59.97;97618.88;5164564;28;20058;-73
2022/04/07 01:26:19;;;;;;;2.33;1.00;;;;;;;12.24;60.03;97578.19;5163852;28;20448;-73
2022/04/07 01:29:11;;;;;;;3.38;0.90;;;;;;;12.08;61.00;97605.00;5164655;28;20054;-73
2022/04/07 01:32:10;;;;;;;1.15;0.80;;;;;;;12.23;60.11;97600.47;5134818;28;20102;-74
2022/04/07 01:35:01;;;;;;;0.90;0.80;;;;;;;12.26;60.38;97592.13;5164408;28;20128;-73
2022/04/07 01:37:53;;;;;;;0.55;0.50;;;;;;;12.27;60.31;97585.81;5164020;28;20058;-74
2022/04/07 01:40:43;;;;;;;2.92;0.73;;;;;;;11.92;59.92;97584.78;5164214;28;20046;-73
2022/04/07 01:43:34;;;;;;;0.98;0.63;;;;;;;11.68;60.42;97604.50;5164382;28;20054;-73
2022/04/07 01:46:25;;;;;;;2.17;0.60;;;;;;;11.90;60.65;97598.28;5163770;28;20527;-74
2022/04/07 01:49:16;;;;;;;1.48;0.70;;;;;;;11.72;61.27;97595.16;5149735;28;20058;-73
2022/04/07 01:52:07;;;;;;;1.05;0.52;;;;;;;11.70;61.63;97608.63;5149217;28;20140;-73
2022/04/07 01:54:58;;;;;;;0.50;0.50;;;;;;;11.88;61.08;97605.59;5163625;28;20134;-73
2022/04/07 01:57:49;;;;;;;1.00;0.68;;;;;;;11.90;61.46;97597.47;5163722;28;20061;-73
2022/04/07 02:00:40;;;;;;;1.30;0.73;;;;;;;11.97;61.63;97601.00;5163705;28;20043;-73
2022/04/07 02:03:31;;;;;;;0.60;0.60;;;;;;;11.90;62.23;97597.47;5143050;28;20054;-74
2022/04/07 02:06:24;;;;;;;1.00;0.60;;;;;;;11.93;62.44;97581.97;5161696;28;20065;-73
2022/04/07 02:09:15;;;;;;;0.90;0.73;;;;;;;11.99;62.07;97580.41;5150174;28;20137;-73
2022/04/07 02:12:05;;;;;;;0.77;0.60;;;;;;;12.37;60.58;97593.47;5163541;28;20057;-74
2022/04/07 02:14:56;;;;;;;0.57;0.50;;;;;;;12.37;61.20;97580.19;5179441;28;20131;-73
2022/04/07 02:17:47;;;;;;;0.50;0.45;;;;;;;12.52;60.84;97588.09;5148768;28;20116;-74
2022/04/07 02:20:37;;;;;;;0.90;0.75;;;;;;;12.03;62.08;97571.03;5143025;28;20053;-73
2022/04/07 02:23:27;;;;;;;1.58;0.50;;;;;;;12.07;61.99;97588.25;5155169;28;20570;-73
2022/04/07 02:26:17;;;;;;;1.15;0.50;;;;;;;11.78;61.94;97578.47;5148265;28;20061;-73
2022/04/07 02:29:07;;;;;;;0.77;0.50;;;;;;;12.11;60.85;97548.84;5143734;28;20057;-73
2022/04/07 02:31:57;;;;;;;0.47;0.35;;;;;;;12.68;58.50;97569.19;5155194;28;20464;-73
2022/04/07 02:34:48;;;;;;;1.75;0.70;;;;;;;12.19;60.18;97575.31;5163003;28;20097;-73
2022/04/07 02:37:38;;;;;;;1.05;0.73;;;;;;;12.14;61.22;97564.41;5147670;28;20046;-73
2022/04/07 02:40:28;;;;;;;0.70;0.52;;;;;;;12.23;61.43;97569.41;5163313;28;20184;-73
2022/04/07 02:43:19;;;;;;;0.98;0.60;;;;;;;12.05;62.21;97574.31;5162841;28;20058;-74
2022/04/07 02:46:10;;;;;;;3.22;0.73;;;;;;;12.05;62.71;97555.72;5162748;28;20576;-74
2022/04/07 02:49:01;;;;;;;1.10;0.80;;;;;;;11.94;63.99;97574.81;5163317;28;20105;-73
2022/04/07 02:51:51;;;;;;;0.60;0.52;;;;;;;11.70;63.98;97560.81;5163033;28;20516;-73
2022/04/07 02:54:41;;;;;;;3.20;0.70;;;;;;;12.01;63.01;97553.63;5162962;28;20420;-74
2022/04/07 02:57:31;;;;;;;3.42;0.70;;;;;;;11.82;64.82;97558.53;5162677;28;20046;-74
2022/04/07 03:00:21;;;;;;;0.95;0.70;;;;;;;11.36;63.83;97495.09;5162522;28;20057;-74
2022/04/07 03:03:11;;;;;;;0.52;0.52;;;;;;;11.47;64.43;97550.34;5163212;28;20050;-73
2022/04/07 03:06:01;;;;;;;1.45;0.70;;;;;;;11.70;63.96;97552.03;5155356;28;20567;-74
2022/04/07 03:08:51;;;;;;;1.90;0.82;;;;;;;12.18;61.78;97545.22;5162790;28;20121;-74
2022/04/07 03:11:42;;;;;;;1.35;0.77;;;;;;;11.96;63.31;97538.28;5142917;28;20552;-74
2022/04/07 03:14:32;;;;;;;2.67;0.80;;;;;;;11.33;65.05;97550.34;5161033;28;20472;-73
2022/04/07 03:17:22;;;;;;;1.80;1.10;;;;;;;11.92;63.33;97540.50;5157282;28;20073;-73
2022/04/07 03:20:12;;;;;;;2.83;1.70;;;;;;;11.27;66.15;97542.09;5147503;28;20061;-73
2022/04/07 03:23:02;;;;;;;3.63;2.00;;;;;;;11.41;65.18;97529.84;5162348;28;20058;-73
2022/04/07 03:25:53;;;;;;;2.20;1.23;;;;;;;11.51;64.69;97521.59;5161440;28;20077;-73
2022/04/07 03:28:43;;;;;;;0.98;0.70;;;;;;;11.29;64.70;97536.59;5162341;28;20127;-73
2022/04/07 03:31:33;;;;;;;2.08;0.70;;;;;;;11.13;66.03;97521.72;5162125;28;20126;-73
2022/04/07 03:34:24;;;;;;;1.85;0.70;;;;;;;11.27;65.24;97528.84;5147953;28;20656;-74
2022/04/07 03:37:14;;;;;;;2.10;0.65;;;;;;;11.30;64.53;97506.44;5154488;28;20128;-74
2022/04/07 03:40:05;;;;;;;0.98;0.65;;;;;;;11.08;65.04;97517.97;5162050;28;20168;-73
2022/04/07 03:42:56;;;;;;;3.30;1.00;;;;;;;11.25;64.26;97525.53;5151684;28;20093;-73
2022/04/07 03:45:46;;;;;;;1.33;0.70;;;;;;;11.33;63.60;97506.06;5161340;28;20062;-73
2022/04/07 03:48:37;;;;;;;3.78;0.60;;;;;;;11.91;61.82;97500.81;5158685;28;20525;-73
2022/04/07 03:51:28;;;;;;;1.67;0.60;;;;;;;11.91;61.98;97498.97;5162058;28;20726;-74
2022/04/07 03:54:17;;;;;;;1.05;0.73;;;;;;;11.71;62.74;97498.75;5146496;28;20564;-74
2022/04/07 03:57:08;;;;;;;1.58;0.77;;;;;;;11.08;63.74;97472.88;5161367;28;20077;-73
2022/04/07 03:59:57;;;;;;;2.78;0.82;;;;;;;11.57;62.90;97493.47;5161931;28;20638;-74
2022/04/07 04:02:50;;;;;;;1.98;0.80;;;;;;;11.73;62.06;97486.13;5161896;28;20046;-74
2022/04/07 04:05:40;;;;;;;2.65;0.90;;;;;;;10.83;64.25;97470.50;5161358;28;20843;-73
2022/04/07 04:08:31;;;;;;;0.93;0.60;;;;;;;11.31;62.99;97456.84;5161812;28;20050;-74
2022/04/07 04:11:21;;;;;;;0.60;0.60;;;;;;;11.29;62.72;97460.50;5147188;28;20069;-74
2022/04/07 04:14:11;;;;;;;2.88;0.63;;;;;;;11.17;63.20;97459.31;5143563;28;20053;-76
2022/04/07 04:17:01;;;;;;;2.75;0.50;;;;;;;11.08;63.93;97459.63;5161201;28;20420;-72
2022/04/07 04:19:52;;;;;;;1.02;0.63;;;;;;;11.25;62.34;97455.75;5146969;28;20054;-71
2022/04/07 04:22:42;;;;;;;2.25;0.70;;;;;;;11.12;63.07;97447.63;5156238;28;20185;-70
2022/04/07 04:25:32;;;;;;;1.00;0.60;;;;;;;11.34;62.25;97445.84;5139419;28;20058;-71
2022/04/07 04:28:22;;;;;;;1.63;0.70;;;;;;;11.26;62.36;97430.88;5160690;28;20062;-71
2022/04/07 04:31:12;;;;;;;0.93;0.77;;;;;;;11.13;62.45;97443.97;5142415;28;20057;-70
2022/04/07 04:34:03;;;;;;;2.08;0.70;;;;;;;11.24;62.47;97449.63;5159781;28;20062;-71
2022/04/07 04:36:54;;;;;;;1.42;0.60;;;;;;;11.21;62.29;97449.97;5158738;28;20094;-70
2022/04/07 04:39:44;;;;;;;2.08;0.80;;;;;;;11.22;62.95;97448.16;5137054;28;20129;-71
2022/04/07 04:42:34;;;;;;;2.00;0.70;;;;;;;11.02;63.42;97440.75;5143905;28;20140;-71
2022/04/07 04:45:24;;;;;;;0.73;0.57;;;;;;;11.19;62.88;97441.41;5158990;28;20525;-70
2022/04/07 04:48:14;;;;;;;0.88;0.77;;;;;;;11.56;61.41;97452.84;5158916;28;20057;-71
2022/04/07 04:51:05;;;;;;;2.70;0.70;;;;;;;11.76;60.78;97429.97;5159715;28;20053;-73
2022/04/07 04:53:55;;;;;;;2.38;0.63;;;;;;;11.57;61.16;97437.75;5160434;28;20066;-72
2022/04/07 04:56:46;;;;;;;1.00;0.88;;;;;;;11.66;61.07;97432.13;5156070;28;20420;-74
2022/04/07 04:59:36;;;;;;;1.00;0.60;;;;;;;11.31;62.34;97425.00;5160385;28;20121;-73
2022/04/07 05:02:25;;;;;;;0.60;0.57;;;;;;;11.60;61.36;97422.25;5145989;28;20489;-72
2022/04/07 05:05:16;;;;;;;3.10;0.70;;;;;;;12.03;60.62;97426.78;5160990;28;20058;-73
2022/04/07 05:08:07;;;;;;;2.47;0.80;;;;;;;11.74;60.33;97424.03;5162985;28;20607;-72
2022/04/07 05:10:57;;;;;;;1.40;0.70;;;;;;;12.22;59.25;97415.50;5149711;28;20531;-73
2022/04/07 05:13:47;;;;;;;2.92;0.80;;;;;;;11.28;62.12;97428.84;5164206;28;20101;-73
2022/04/07 05:16:37;;;;;;;2.25;0.60;;;;;;;11.43;61.75;97423.50;5156168;28;20065;-72
2022/04/07 05:19:28;;;;;;;1.25;0.75;;;;;;;11.64;61.81;97430.66;5164417;28;20050;-72
2022/04/07 05:22:18;;;;;;;2.92;0.70;;;;;;;11.57;62.27;97427.94;5163748;28;20054;-72
2022/04/07 05:25:10;;;;;;;2.60;0.82;;;;;;;11.77;61.21;97421.00;5163958;28;20369;-72
2022/04/07 05:28:01;;;;;;;0.73;0.63;;;;;;;11.98;60.27;97403.41;5163411;28;20089;-72
2022/04/07 05:30:51;;;;;;;2.88;0.80;;;;;;;12.02;59.60;97410.03;5149617;28;20575;-72
2022/04/07 05:33:42;;;;;;;0.55;0.50;;;;;;;11.22;62.08;97409.16;5147050;28;20132;-72
2022/04/07 05:36:32;;;;;;;1.48;0.60;;;;;;;11.18;61.70;97413.22;5163493;28;20046;-72
2022/04/07 05:39:23;;;;;;;1.27;0.50;;;;;;;11.31;62.73;97414.38;5163450;28;20184;-72
2022/04/07 05:42:13;;;;;;;1.92;0.52;;;;;;;11.19;62.67;97401.63;5163435;28;20109;-72
2022/04/07 05:45:05;;;;;;;1.08;0.60;;;;;;;11.52;62.14;97399.31;5150119;28;20133;-72
2022/04/07 05:47:55;;;;;;;1.75;0.68;;;;;;;11.46;61.64;97410.69;5157856;28;20324;-72
2022/04/07 05:50:46;;;;;;;1.65;0.60;;;;;;;11.66;60.87;97410.06;5163743;28;20072;-72
2022/04/07 05:53:36;;;;;;;2.08;0.40;;;;;;;11.11;62.74;97401.72;5163303;28;20519;-72
2022/04/07 05:56:26;;;;;;;1.45;0.55;;;;;;;12.00;60.77;97393.44;5163345;28;20528;-72
2022/04/07 05:59:15;;;;;;;2.05;0.60;;;;;;;11.65;61.91;97387.97;5164176;28;20058;-72
2022/04/07 06:02:06;;;;;;;1.02;0.43;;;;;;;11.84;60.80;97367.13;5154176;28;20051;-72
2022/04/07 06:04:56;;;;;;;0.60;0.60;;;;;;;11.42;61.34;97356.34;5162561;28;20054;-72
2022/04/07 06:07:47;;;;;;;2.10;0.73;;;;;;;11.76;61.14;97342.34;5161618;28;20424;-72
2022/04/07 06:10:37;;;;;;;1.08;0.57;;;;;;;12.13;59.39;97327.13;5162396;28;20116;-72
2022/04/07 06:13:28;;;;;;;2.05;0.60;;;;;;;12.31;59.35;97315.16;5161100;28;20057;-72
2022/04/07 06:16:19;;;;;;;1.33;0.80;;;;;;;12.63;58.63;97333.13;5162354;28;20543;-72
2022/04/07 06:19:09;;;;;;;4.03;0.60;;;;;;;12.66;58.75;97343.38;5155940;28;20161;-72
2022/04/07 06:21:59;;;;;;;1.17;0.70;;;;;;;12.34;58.46;97349.31;5162914;28;20053;-72
2022/04/07 06:24:49;;;;;;;3.97;1.20;;;;;;;11.95;59.82;97329.44;5163496;28;20054;-73
2022/04/07 06:27:45;;;;;;;0.98;0.50;;;;;;;12.35;58.24;97340.31;5162013;28;20051;-72
2022/04/07 06:30:35;;;;;;;1.67;0.55;;;;;;;12.75;57.79;97333.41;5162572;28;20386;-72
2022/04/07 06:33:24;;;;;;;2.22;0.40;;;;;;;12.04;58.47;97338.91;5163566;28;20050;-72
2022/04/07 06:36:14;;;;;;;1.52;0.40;;;;;;;12.21;58.34;97311.00;5162618;28;20054;-73
2022/04/07 06:39:05;;;;;;;2.75;0.68;;;;;;;12.26;57.99;97314.94;5162715;28;20054;-72
2022/04/07 06:41:55;;;;;;;3.08;0.52;;;;;;;12.15;59.01;97313.63;5162354;28;20121;-73
2022/04/07 06:44:46;;;;;;;0.98;0.50;;;;;;;12.50;57.07;97309.13;5163646;28;20070;-73
2022/04/07 06:47:39;;;;;;;1.20;0.60;;;;;;;12.76;57.75;97321.72;5154903;28;20058;-74
2022/04/07 06:50:31;;;;;;;3.08;0.50;;;;;;;12.18;58.50;97319.38;5161330;28;20054;-73
2022/04/07 06:53:22;;;;;;;3.38;0.40;;;;;;;12.30;57.61;97298.41;5148704;28;20414;-73
2022/04/07 06:56:11;;;;;;;0.88;0.47;;;;;;;12.28;58.74;97303.09;5162668;28;20069;-73
2022/04/07 06:59:02;;;;;;;0.60;0.50;;;;;;;12.69;56.43;97294.28;5162338;28;20148;-73
2022/04/07 07:01:52;;;;;;;1.05;0.50;;;;;;;12.58;56.99;97300.16;5160671;28;20188;-73
2022/04/07 07:04:42;;;;;;;0.88;0.30;;;;;;;11.73;59.73;97296.78;5147300;28;20054;-73
2022/04/07 07:07:33;;;;;;;1.05;0.40;;;;;;;12.72;56.77;97301.88;5149185;28;20124;-73
2022/04/07 07:10:25;;;;;;;4.20;0.45;;;;;;;12.84;57.39;97288.81;5162151;28;20104;-73
2022/04/07 07:13:17;;;;;;;1.13;0.40;;;;;;;12.94;57.46;97271.44;5145477;28;20070;-73
2022/04/07 07:16:14;;;;;;;4.20;0.52;;;;;;;12.62;57.47;97274.84;5162081;28;20559;-73
2022/04/07 07:19:04;;;;;;;0.40;0.30;;;;;;;12.52;57.47;97277.88;5162456;28;20061;-73
2022/04/07 07:21:54;;;;;;;0.93;0.28;;;;;;;13.01;55.40;97262.66;5160503;28;20053;-73
2022/04/07 07:24:44;;;;;;;0.65;0.30;;;;;;;12.31;57.48;97256.69;5162113;28;20599;-73
2022/04/07 07:27:45;;;;;;;0.55;0.13;;;;;;;12.41;57.57;97257.97;5160425;28;20057;-74
2022/04/07 07:30:36;;;;;;;2.38;0.40;;;;;;;12.65;57.00;97259.31;5146515;28;20050;-73
2022/04/07 07:33:26;;;;;;;1.27;0.40;;;;;;;13.05;57.18;97246.13;5159482;28;20046;-73
2022/04/07 07:36:16;;;;;;;2.40;0.40;;;;;;;12.99;56.38;97241.59;5162129;28;20623;-73
2022/04/07 07:39:07;;;;;;;4.63;0.30;;;;;;;12.60;56.71;97240.47;5162112;28;20061;-73
2022/04/07 07:41:58;;;;;;;0.88;0.20;;;;;;;12.51;57.60;97239.00;5161644;28;20161;-73
2022/04/07 07:44:47;;;;;;;1.45;0.50;;;;;;;12.91;56.86;97237.28;5161785;28;20054;-73
2022/04/07 07:47:37;;;;;;;0.82;0.20;;;;;;;12.15;58.33;97212.66;5160979;28;20073;-73
2022/04/07 07:50:27;;;;;;;2.45;0.30;;;;;;;12.75;57.16;97228.84;5161446;28;20050;-73
2022/04/07 07:53:18;;;;;;;1.38;0.30;;;;;;;13.34;55.69;97212.16;5161913;28;20144;-73
2022/04/07 07:56:08;;;;;;;1.55;0.30;;;;;;;12.94;56.65;97210.25;5147876;28;20081;-73
2022/04/07 07:58:58;;;;;;;0.63;0.22;;;;;;;12.95;56.93;97211.09;5161571;28;20501;-73
2022/04/07 08:01:48;;;;;;;2.95;0.20;;;;;;;12.85;56.39;97197.38;5161319;28;20121;-73
2022/04/07 08:04:39;;;;;;;0.40;0.30;;;;;;;13.39;55.90;97199.06;5161975;28;20124;-73
2022/04/07 08:07:29;;;;;;;1.85;0.75;;;;;;;12.64;57.48;97185.84;5161546;28;20069;-73
2022/04/07 08:10:19;;;;;;;4.28;0.40;;;;;;;12.84;56.48;97190.41;5161346;28;20982;-73
2022/04/07 08:13:10;;;;;;;3.08;0.60;;;;;;;12.42;58.33;97190.53;5161638;28;20062;-73
2022/04/07 08:16:00;;;;;;;0.98;0.32;;;;;;;12.42;57.68;97174.56;5152144;28;20058;-73
2022/04/07 08:18:51;;;;;;;3.78;0.93;;;;;;;12.92;56.37;97169.75;5160751;28;20065;-73
2022/04/07 08:21:41;;;;;;;1.80;0.30;;;;;;;13.01;56.54;97180.19;5129753;28;20070;-73
2022/04/07 08:24:30;;;;;;;1.52;0.28;;;;;;;12.63;57.58;97156.81;5157447;28;20054;-73
2022/04/07 08:27:21;;;;;;;1.35;0.50;;;;;;;13.55;55.45;97158.72;5148376;28;20500;-73
2022/04/07 08:30:12;;;;;;;4.20;0.50;;;;;;;13.03;57.18;97147.03;5161011;28;20080;-73
2022/04/07 08:33:03;;;;;;;3.00;0.55;;;;;;;13.20;56.61;97141.31;5160292;28;20089;-73
2022/04/07 08:35:54;;;;;;;1.38;0.30;;;;;;;14.02;54.96;97151.41;5140370;28;20057;-73
2022/04/07 08:38:45;;;;;;;1.83;0.60;;;;;;;12.97;57.01;97161.16;5164831;28;20058;-73
2022/04/07 08:41:34;;;;;;;1.98;0.40;;;;;;;12.80;58.03;97149.28;5150388;28;20069;-73
2022/04/07 08:44:31;;;;;;;1.98;0.82;;;;;;;12.92;57.18;97148.47;5151358;28;20409;-73
2022/04/07 08:47:21;;;;;;;2.50;0.77;;;;;;;13.00;57.79;97147.44;5150515;28;20160;-73
2022/04/07 08:50:13;;;;;;;3.17;0.60;;;;;;;13.26;56.77;97141.34;5165011;28;20065;-74
2022/04/07 08:53:03;;;;;;;0.85;0.30;;;;;;;13.82;55.67;97130.16;5164074;28;20129;-73
2022/04/07 08:55:53;;;;;;;3.85;0.40;;;;;;;13.71;55.92;97122.84;5164644;28;20108;-73
2022/04/07 08:58:43;;;;;;;2.28;0.43;;;;;;;14.12;54.62;97126.16;5165427;28;20054;-73
2022/04/07 09:01:34;;;;;;;2.75;1.00;;;;;;;13.67;54.86;97112.78;5149134;28;20077;-74
2022/04/07 09:04:24;;;;;;;3.85;0.32;;;;;;;13.32;55.37;97113.91;5151178;28;20412;-73
2022/04/07 09:07:15;;;;;;;1.17;0.50;;;;;;;14.07;54.61;97114.31;5165057;28;20115;-73
2022/04/07 09:10:05;;;;;;;3.40;0.50;;;;;;;13.37;54.80;97099.97;5164516;28;20057;-73
2022/04/07 09:13:02;;;;;;;10.13;0.38;;;;;;;13.92;54.52;97103.09;5164834;28;20058;-73
2022/04/07 09:15:53;;;;;;;4.03;0.28;;;;;;;13.20;56.11;97077.44;5161671;28;20188;-73
2022/04/07 09:18:45;;;;;;;2.00;0.40;;;;;;;14.09;54.20;97096.22;5164522;28;20058;-73
2022/04/07 09:21:36;;;;;;;2.08;0.38;;;;;;;14.04;54.01;97076.59;5148202;28;20520;-73
2022/04/07 09:24:26;;;;;;;1.75;0.20;;;;;;;13.81;53.63;97091.25;5149525;28;20416;-73
2022/04/07 09:27:16;;;;;;;1.13;0.40;;;;;;;13.26;54.67;97093.44;5152196;28;20109;-73
2022/04/07 09:30:08;;;;;;;0.65;0.40;;;;;;;13.69;55.76;97081.47;5159858;28;20492;-73
2022/04/07 09:32:58;;;;;;;0.70;0.20;;;;;;;13.27;57.48;97086.25;5164380;28;20050;-73
2022/04/07 09:36:01;;;;;;;2.63;0.40;;;;;;;13.32;57.77;97092.59;5162605;28;20046;-73
2022/04/07 09:38:55;;;;;;;0.75;0.22;;;;;;;13.29;56.98;97070.91;5164096;28;20065;-73
2022/04/07 09:41:45;;;;;;;1.85;0.30;;;;;;;13.29;58.32;97082.38;5164423;28;20058;-73
2022/04/07 09:44:38;;;;;;;2.03;0.43;;;;;;;13.31;58.00;97076.81;5135321;28;20065;-73
2022/04/07 09:47:43;;;;;;;3.93;0.20;;;;;;;12.74;59.52;97057.81;5162684;28;20085;-73
2022/04/07 09:50:33;;;;;;;;;;;;;;;12.85;58.85;97072.38;5147602;28;20289;-73
2022/04/07 09:53:24;;;;;;;1.70;0.45;;;;;;;13.47;57.64;97057.75;5146411;28;20031;-73
2022/04/07 09:56:16;;;;;;;0.77;0.40;;;;;;;13.86;56.59;97064.78;5162392;28;20054;-73
2022/04/07 09:59:07;;;;;;;0.43;0.30;;;;;;;14.17;55.64;97044.56;5162424;28;20552;-73
2022/04/07 10:01:58;;;;;;;1.30;0.32;;;;;;;13.99;55.47;97047.91;5128297;28;20053;-73
2022/04/07 10:04:50;;;;;;;0.60;0.28;;;;;;;13.67;57.19;97003.59;5158722;28;20050;-73
2022/04/07 10:07:42;;;;;;;1.13;0.30;;;;;;;13.90;56.46;97006.56;5162583;28;20061;-74
2022/04/07 10:10:34;;;;;;;1.15;0.47;;;;;;;14.00;56.34;97020.22;5162256;28;20064;-74
2022/04/07 10:13:26;;;;;;;0.75;0.50;;;;;;;13.69;56.29;97017.53;5162501;28;20480;-74
2022/04/07 10:16:17;;;;;;;0.95;0.32;;;;;;;13.81;56.40;96989.22;5149180;28;20480;-74
2022/04/07 10:19:12;;;;;;;1.70;0.60;;;;;;;13.75;54.95;96992.72;5161885;28;20058;-74
2022/04/07 10:22:43;;;;;;;3.42;0.57;;;;;;;13.33;56.39;96985.09;5151239;28;20065;-74
2022/04/07 10:25:39;;;;;;;1.05;0.30;;;;;;;13.27;56.51;96966.50;5159971;28;20050;-74
2022/04/07 10:28:30;;;;;;;1.25;0.20;;;;;;;13.54;56.19;96980.50;5163197;28;20054;-74
2022/04/07 10:31:25;;;;;;;0.43;0.20;;;;;;;14.27;53.32;96966.75;5163351;28;20524;-74
2022/04/07 10:34:30;;;;;;;0.80;0.30;;;;;;;13.90;54.89;96966.59;5162469;28;20042;-73
2022/04/07 10:37:39;;;;;;;3.22;0.20;;;;;;;14.22;54.48;96967.41;5160188;28;20421;-73
2022/04/07 10:40:50;;;;;;;1.45;0.20;;;;;;;14.16;54.54;96962.13;5160296;28;20050;-73
2022/04/07 10:43:40;;;;;;;0.52;0.20;;;;;;;14.04;54.97;96941.50;5162838;28;20463;-74
2022/04/07 10:46:31;;;;;;;1.08;0.20;;;;;;;14.60;52.91;96939.84;5151066;28;20046;-74
2022/04/07 10:49:24;;;;;;;0.13;0.10;;;;;;;14.12;54.39;96947.63;5161118;28;20413;-73
2022/04/07 10:52:26;;;;;;;2.47;0.20;;;;;;;14.01;54.61;96930.47;5161816;28;20115;-73
2022/04/07 10:55:19;;;;;;;5.97;0.30;;;;;;;13.97;55.26;96927.44;5147949;28;20046;-73
2022/04/07 10:58:10;;;;;;;0.98;0.15;;;;;;;14.63;54.03;96917.25;5162620;28;20512;-75
2022/04/07 11:01:01;;;;;;;3.03;0.20;;;;;;;14.77;53.61;96916.09;5162394;28;20571;-73
2022/04/07 11:04:25;;;;;;;0.63;0.20;;;;;;;14.59;54.52;96926.75;5160846;28;20050;-73
2022/04/07 11:07:18;;;;;;;0.40;0.20;;;;;;;15.14;52.25;96908.09;5146760;28;20520;-71
2022/04/07 11:10:13;;;;;;;1.38;0.20;;;;;;;14.86;53.01;96912.09;5159885;28;20129;-72
2022/04/07 11:13:04;;;;;;;0.50;0.30;;;;;;;14.88;53.66;96885.19;5132413;28;20054;-72
2022/04/07 11:16:03;;;;;;;0.55;0.20;;;;;;;14.62;52.97;96904.97;5160815;28;20061;-72
2022/04/07 11:19:03;;;;;;;0.95;0.10;;;;;;;14.82;54.09;96896.75;5162448;28;20054;-70
2022/04/07 11:22:07;;;;;;;4.05;0.85;;;;;;;15.14;53.18;96908.09;5162022;28;20136;-72
2022/04/07 11:25:04;;;;;;;1.05;0.17;;;;;;;14.46;53.50;96890.31;5161806;28;20050;-71
2022/04/07 11:28:11;;;;;;;0.30;0.10;;;;;;;14.70;53.45;96892.16;5157843;28;20151;-72
2022/04/07 11:31:04;;;;;;;0.68;0.20;;;;;;;14.99;52.98;96881.78;5159099;28;20055;-70
2022/04/07 11:33:54;;;;;;;0.35;0.20;;;;;;;15.61;51.82;96897.63;5157934;28;20072;-71
2022/04/07 11:36:46;;;;;;;0.20;0.20;;;;;;;14.90;53.77;96889.28;5158944;28;20069;-71
2022/04/07 11:39:39;;;;;;;2.00;0.17;;;;;;;15.65;52.29;96896.94;5157997;28;20479;-71
2022/04/07 11:42:35;;;;;;;1.75;0.10;;;;;;;15.56;52.02;96836.03;5150194;28;20188;-73
2022/04/07 11:45:32;;;;;;;0.65;0.20;;;;;;;15.86;50.27;96873.44;5157602;28;20536;-73
2022/04/07 11:48:23;;;;;;;1.73;0.28;;;;;;;16.64;50.81;96869.66;5159240;28;20054;-72
2022/04/07 11:51:18;;;;;;;6.82;0.30;;;;;;;15.92;50.76;96835.09;5144200;28;20054;-71
2022/04/07 11:54:09;;;;;;;0.30;0.15;;;;;;;16.32;50.46;96851.28;5155954;28;20046;-72
2022/04/07 11:56:59;;;;;;;0.93;0.20;;;;;;;16.01;52.28;96856.97;5158691;28;20516;-71
2022/04/07 11:59:49;;;;;;;1.10;0.38;;;;;;;15.80;51.87;96845.78;5159069;28;20066;-72
2022/04/07 12:02:39;;;;;;;3.35;0.20;;;;;;;15.66;50.80;96844.31;5160459;28;20061;-72
2022/04/07 12:05:30;;;;;;;3.22;0.40;;;;;;;15.42;53.27;96852.25;5160648;28;20054;-72
2022/04/07 12:08:20;;;;;;;4.20;1.23;;;;;;;16.28;51.27;96855.47;5159754;28;20081;-72
2022/04/07 12:11:10;;;;;;;0.82;0.20;;;;;;;15.02;53.18;96825.28;5159146;28;20440;-73
2022/04/07 12:14:04;;;;;;;0.40;0.15;;;;;;;14.87;53.30;96844.38;5160625;28;20050;-73
2022/04/07 12:16:54;;;;;;;1.70;0.10;;;;;;;14.65;53.10;96857.31;5160521;28;20061;-72
2022/04/07 12:19:46;;;;;;;0.10;0.10;;;;;;;15.47;53.34;96855.06;5161719;28;20140;-72
2022/04/07 12:22:36;;;;;;;0.65;0.10;;;;;;;15.93;51.37;96861.63;5160335;28;20069;-72
2022/04/07 12:25:26;;;;;;;0.10;0.10;;;;;;;14.75;53.14;96851.47;5161523;28;20057;-72
2022/04/07 12:28:17;;;;;;;0.68;0.20;;;;;;;14.05;56.34;96862.38;5160710;28;20591;-73
2022/04/07 12:31:14;;;;;;;0.75;0.30;;;;;;;14.77;54.42;96865.41;5152976;28;20051;-72
2022/04/07 12:34:11;;;;;;;2.50;0.38;;;;;;;15.29;52.77;96863.13;5160849;28;20073;-73
2022/04/07 12:37:01;;;;;;;1.08;0.20;;;;;;;14.71;54.57;96829.78;5161368;28;20148;-72
2022/04/07 12:39:51;;;;;;;2.17;0.20;;;;;;;14.47;55.12;96852.78;5160476;28;20054;-72
2022/04/07 12:42:53;;;;;;;0.93;0.20;;;;;;;15.38;53.20;96843.06;5147203;28;20559;-71
2022/04/07 12:46:04;;;;;;;0.52;0.20;;;;;;;15.54;51.93;96838.16;5161196;28;20050;-71
2022/04/07 12:49:06;;;;;;;0.65;0.20;;;;;;;15.46;51.73;96818.75;5153082;28;20054;-72
2022/04/07 12:52:07;;;;;;;1.95;0.30;;;;;;;16.19;51.21;96814.09;5160834;28;20072;-72
2022/04/07 12:54:59;;;;;;;1.77;0.15;;;;;;;15.55;52.68;96831.75;5139757;28;20430;-71
2022/04/07 12:57:52;;;;;;;2.17;0.10;;;;;;;15.61;52.70;96817.50;5159771;28;20148;-71
2022/04/07 13:01:01;;;;;;;2.28;0.22;;;;;;;14.71;53.76;96811.09;5160494;28;20165;-72
2022/04/07 13:03:52;;;;;;;;;;;;;;;15.79;52.07;96808.59;5161524;28;20416;-72
2022/04/07 13:06:42;;;;;;;0.82;0.30;;;;;;;14.93;53.18;96800.78;5144457;28;19971;-71
2022/04/07 13:09:33;;;;;;;0.05;0.03;;;;;;;15.20;53.65;96789.75;5159760;28;20069;-72
2022/04/07 13:12:23;;;;;;;1.35;0.13;;;;;;;15.90;52.60;96802.47;5159464;28;20057;-71
2022/04/07 13:15:13;;;;;;;1.45;0.10;;;;;;;15.66;52.49;96790.88;5159383;28;20416;-72
2022/04/07 13:18:03;;;;;;;1.42;0.17;;;;;;;16.05;52.35;96783.28;5159455;28;20065;-71
2022/04/07 13:20:54;;;;;;;2.05;0.10;;;;;;;15.69;50.86;96742.38;5145018;28;20046;-71
2022/04/07 13:23:44;;;;;;;0.45;0.17;;;;;;;15.07;53.18;96777.41;5162246;28;20567;-71
2022/04/07 13:26:34;;;;;;;0.68;0.13;;;;;;;14.70;54.23;96790.81;5162065;28;20054;-72
2022/04/07 13:29:24;;;;;;;3.03;0.20;;;;;;;14.56;54.88;96747.44;5163449;28;20432;-71